createdAt,value
2022-12-01T00:00:57.667Z,33.00
2022-12-01T00:03:31.073Z,34.30
2022-12-01T00:06:02.921Z,36.80
2022-12-01T00:08:34.719Z,35.00
2022-12-01T00:11:09.345Z,34.50
2022-12-01T00:13:40.186Z,37.70
2022-12-01T00:16:16.819Z,36.20
2022-12-01T00:18:50.356Z,37.50
2022-12-01T00:21:23.354Z,35.00
2022-12-01T00:23:56.295Z,35.20
2022-12-01T00:26:28.332Z,37.80
2022-12-01T00:29:00.558Z,38.80
2022-12-01T00:31:40.411Z,40.60
2022-12-01T00:34:22.536Z,34.60
2022-12-01T00:36:53.334Z,41.00
2022-12-01T00:41:53.583Z,40.20
2022-12-01T00:44:24.973Z,37.10
2022-12-01T00:49:24.664Z,38.00
2022-12-01T00:51:55.421Z,42.80
2022-12-01T00:54:26.197Z,44.80
2022-12-01T00:56:56.819Z,38.50
2022-12-01T00:59:27.579Z,44.70
2022-12-01T01:01:58.149Z,41.10
2022-12-01T01:04:30.313Z,41.70
2022-12-01T01:07:00.882Z,35.20
2022-12-01T01:09:32.330Z,47.90
2022-12-01T01:14:32.137Z,49.00
2022-12-01T01:17:02.709Z,44.70
2022-12-01T01:19:33.390Z,47.00
2022-12-01T01:22:04.390Z,43.70
2022-12-01T01:24:35.032Z,41.00
2022-12-01T01:27:07.034Z,47.60
2022-12-01T01:29:37.837Z,41.70
2022-12-01T01:32:08.687Z,49.30
2022-12-01T01:34:39.164Z,43.90
2022-12-01T01:37:09.691Z,39.70
2022-12-01T01:39:40.172Z,48.30
2022-12-01T01:42:12.320Z,47.60
2022-12-01T01:44:57.031Z,39.40
2022-12-01T01:47:31.828Z,48.70
2022-12-01T01:50:09.291Z,52.00
2022-12-01T01:52:45.983Z,43.50
2022-12-01T01:55:17.578Z,40.80
2022-12-01T01:57:48.843Z,47.30
2022-12-01T02:00:22.229Z,45.80
2022-12-01T02:02:54.418Z,51.00
2022-12-01T02:05:28.346Z,45.50
2022-12-01T02:08:00.673Z,42.70
2022-12-01T02:10:39.060Z,44.00
2022-12-01T02:13:18.571Z,43.30
2022-12-01T02:15:59.136Z,46.60
2022-12-01T02:18:38.877Z,41.70
2022-12-01T02:21:26.200Z,47.20
2022-12-01T02:24:30.386Z,54.20
2022-12-01T02:27:07.365Z,46.80
2022-12-01T02:30:03.280Z,44.30
2022-12-01T02:32:42.363Z,41.90
2022-12-01T02:35:17.724Z,46.90
2022-12-01T02:37:58.711Z,42.20
2022-12-01T02:40:32.800Z,45.80
2022-12-01T02:43:10.547Z,45.80
2022-12-01T02:45:46.730Z,42.30
2022-12-01T02:48:22.475Z,38.50
2022-12-01T02:50:55.388Z,42.00
2022-12-01T02:53:26.480Z,36.90
2022-12-01T02:55:59.844Z,41.40
2022-12-01T02:58:32.376Z,38.00
2022-12-01T03:01:19.157Z,40.00
2022-12-01T03:04:12.612Z,41.10
2022-12-01T03:06:54.463Z,43.90
2022-12-01T03:09:42.463Z,41.90
2022-12-01T03:12:22.047Z,40.80
2022-12-01T03:15:03.440Z,43.20
2022-12-01T03:17:41.481Z,47.30
2022-12-01T03:20:17.897Z,38.90
2022-12-01T03:22:55.420Z,40.00
2022-12-01T03:25:29.712Z,41.50
2022-12-01T03:30:56.573Z,42.00
2022-12-01T03:33:32.696Z,39.10
2022-12-01T03:36:07.714Z,41.30
2022-12-01T03:38:41.099Z,42.20
2022-12-01T03:41:17.783Z,38.00
2022-12-01T03:43:55.497Z,39.00
2022-12-01T03:46:35.393Z,37.10
2022-12-01T03:49:08.882Z,39.20
2022-12-01T03:51:49.366Z,38.00
2022-12-01T03:54:27.289Z,38.80
2022-12-01T03:57:02.097Z,39.20
2022-12-01T03:59:35.962Z,39.70
2022-12-01T04:02:08.878Z,36.80
2022-12-01T04:04:40.151Z,37.20
2022-12-01T04:07:13.472Z,35.30
2022-12-01T04:09:44.432Z,37.40
2022-12-01T04:12:32.907Z,37.20
2022-12-01T04:15:05.654Z,36.70
2022-12-01T04:17:37.062Z,36.50
2022-12-01T04:22:38.279Z,38.30
2022-12-01T04:25:10.842Z,37.00
2022-12-01T04:27:41.540Z,42.40
2022-12-01T04:30:13.684Z,38.00
2022-12-01T04:32:45.302Z,35.90
2022-12-01T04:35:16.161Z,35.20
2022-12-01T04:37:46.630Z,34.80
2022-12-01T04:40:19.010Z,38.50
2022-12-01T04:42:49.963Z,33.40
2022-12-01T04:45:20.683Z,35.40
2022-12-01T04:47:53.242Z,34.50
2022-12-01T04:50:23.759Z,37.20
2022-12-01T04:52:54.239Z,39.00
2022-12-01T04:55:25.823Z,39.80
2022-12-01T04:57:56.595Z,41.70
2022-12-01T05:00:27.320Z,37.30
2022-12-01T05:02:57.956Z,33.20
2022-12-01T05:05:29.391Z,37.40
2022-12-01T05:10:29.994Z,35.90
2022-12-01T05:13:00.510Z,34.90
2022-12-01T05:15:30.985Z,41.00
2022-12-01T05:18:01.499Z,39.50
2022-12-01T05:20:49.830Z,35.10
2022-12-01T05:23:20.413Z,35.40
2022-12-01T05:25:51.276Z,43.40
2022-12-01T05:28:23.182Z,42.10
2022-12-01T05:30:54.658Z,31.10
2022-12-01T05:33:26.873Z,35.30
2022-12-01T05:35:58.105Z,34.70
2022-12-01T05:38:28.629Z,35.10
2022-12-01T05:40:59.245Z,38.10
2022-12-01T05:43:29.924Z,34.70
2022-12-01T05:46:02.136Z,39.10
2022-12-01T05:48:32.850Z,35.60
2022-12-01T05:51:11.487Z,36.60
2022-12-01T05:53:46.165Z,32.60
2022-12-01T05:56:16.906Z,39.10
2022-12-01T05:58:58.360Z,36.70
2022-12-01T06:01:29.801Z,36.20
2022-12-01T06:04:00.573Z,37.50
2022-12-01T06:06:31.546Z,35.70
2022-12-01T06:09:02.242Z,39.70
2022-12-01T06:11:32.732Z,31.40
2022-12-01T06:14:03.503Z,38.50
2022-12-01T06:16:34.384Z,36.20
2022-12-01T06:19:08.098Z,34.90
2022-12-01T06:21:38.751Z,41.30
2022-12-01T06:24:11.276Z,35.90
2022-12-01T06:26:41.967Z,38.90
2022-12-01T06:29:13.460Z,38.40
2022-12-01T06:34:14.700Z,37.60
2022-12-01T06:36:45.558Z,35.70
2022-12-01T06:39:17.591Z,38.50
2022-12-01T06:41:48.314Z,37.70
2022-12-01T06:44:19.234Z,38.10
2022-12-01T06:46:52.958Z,39.60
2022-12-01T06:49:23.620Z,39.70
2022-12-01T06:51:54.286Z,38.40
2022-12-01T06:54:24.977Z,38.00
2022-12-01T06:56:55.542Z,42.70
2022-12-01T06:59:26.372Z,35.60
2022-12-01T07:01:57.893Z,35.80
2022-12-01T07:04:28.937Z,37.70
2022-12-01T07:06:59.728Z,36.90
2022-12-01T07:09:30.160Z,34.80
2022-12-01T07:12:00.609Z,37.40
2022-12-01T07:14:31.779Z,37.20
2022-12-01T07:17:02.738Z,43.30
2022-12-01T07:19:33.700Z,41.50
2022-12-01T07:22:04.453Z,38.10
2022-12-01T07:24:34.825Z,39.80
2022-12-01T07:27:05.471Z,34.80
2022-12-01T07:29:36.270Z,34.20
2022-12-01T07:32:07.190Z,38.80
2022-12-01T07:34:37.859Z,42.30
2022-12-01T07:37:08.454Z,37.80
2022-12-01T07:39:39.207Z,39.30
2022-12-01T07:42:09.840Z,36.50
2022-12-01T07:44:40.321Z,39.20
2022-12-01T07:47:11.008Z,35.00
2022-12-01T07:49:41.780Z,39.00
2022-12-01T07:52:12.377Z,36.40
2022-12-01T07:54:43.021Z,41.30
2022-12-01T07:57:15.089Z,39.90
2022-12-01T07:59:45.610Z,34.20
2022-12-01T08:02:16.501Z,37.50
2022-12-01T08:04:47.179Z,42.80
2022-12-01T08:07:17.775Z,37.60
2022-12-01T08:09:48.463Z,34.50
2022-12-01T08:12:19.320Z,38.70
2022-12-01T08:14:50.028Z,41.90
2022-12-01T08:17:20.768Z,40.00
2022-12-01T08:19:51.554Z,40.30
2022-12-01T08:22:22.410Z,37.80
2022-12-01T08:24:53.012Z,41.10
2022-12-01T08:27:23.633Z,39.20
2022-12-01T08:29:54.157Z,38.80
2022-12-01T08:32:24.622Z,34.60
2022-12-01T08:34:57.095Z,36.10
2022-12-01T08:37:27.883Z,31.50
2022-12-01T08:39:58.529Z,34.10
2022-12-01T08:42:29.110Z,36.60
2022-12-01T08:44:59.688Z,34.70
2022-12-01T08:47:31.534Z,37.90
2022-12-01T08:50:05.329Z,34.80
2022-12-01T08:52:36.269Z,38.00
2022-12-01T08:55:08.766Z,33.70
2022-12-01T08:57:39.251Z,36.90
2022-12-01T09:00:12.490Z,38.90
2022-12-01T09:02:43.148Z,37.70
2022-12-01T09:05:14.199Z,34.60
2022-12-01T09:08:04.923Z,34.40
2022-12-01T09:10:35.786Z,39.20
2022-12-01T09:13:06.558Z,38.30
2022-12-01T09:15:37.200Z,40.40
2022-12-01T09:18:08.311Z,39.10
2022-12-01T09:20:38.877Z,36.70
2022-12-01T09:23:09.465Z,36.80
2022-12-01T09:25:40.034Z,40.60
2022-12-01T09:28:10.507Z,37.00
2022-12-01T09:30:40.911Z,46.90
2022-12-01T09:33:11.544Z,45.70
2022-12-01T09:35:42.103Z,39.70
2022-12-01T09:38:12.833Z,43.00
2022-12-01T09:40:45.512Z,38.90
2022-12-01T09:43:20.632Z,41.20
2022-12-01T09:45:55.745Z,37.80
2022-12-01T09:48:32.354Z,44.20
2022-12-01T09:51:03.388Z,39.90
2022-12-01T09:53:33.999Z,38.30
2022-12-01T09:56:11.510Z,39.10
2022-12-01T09:58:45.170Z,36.80
2022-12-01T10:01:24.405Z,37.30
2022-12-01T10:04:02.518Z,40.20
2022-12-01T10:06:41.326Z,38.10
2022-12-01T10:09:22.071Z,39.40
2022-12-01T10:11:57.594Z,38.70
2022-12-01T10:14:38.072Z,37.30
2022-12-01T10:17:20.539Z,32.70
2022-12-01T10:19:57.473Z,33.80
2022-12-01T10:23:04.049Z,36.80
2022-12-01T10:25:44.977Z,35.60
2022-12-01T10:28:45.696Z,33.30
2022-12-01T10:31:22.150Z,35.40
2022-12-01T10:34:03.579Z,31.70
2022-12-01T10:36:35.551Z,34.30
2022-12-01T10:39:07.968Z,34.30
2022-12-01T10:41:40.731Z,32.20
2022-12-01T10:44:13.364Z,37.00
2022-12-01T10:46:50.358Z,33.60
2022-12-01T10:49:22.328Z,32.40
2022-12-01T10:51:55.885Z,37.50
2022-12-01T10:54:36.191Z,32.70
2022-12-01T10:57:14.948Z,37.00
2022-12-01T10:59:53.278Z,30.00
2022-12-01T11:02:27.412Z,31.70
2022-12-01T11:05:01.459Z,31.40
2022-12-01T11:07:34.729Z,36.20
2022-12-01T11:10:30.077Z,31.00
2022-12-01T11:13:04.424Z,31.60
2022-12-01T11:15:42.266Z,32.10
2022-12-01T11:18:29.305Z,40.30
2022-12-01T11:21:10.854Z,35.00
2022-12-01T11:26:20.736Z,34.10
2022-12-01T11:28:57.119Z,39.30
2022-12-01T11:31:40.301Z,34.20
2022-12-01T11:34:21.910Z,33.70
2022-12-01T11:36:58.573Z,34.10
2022-12-01T11:39:32.409Z,32.20
2022-12-01T11:42:05.904Z,30.70
2022-12-01T11:44:51.449Z,35.10
2022-12-01T11:47:25.343Z,32.00
2022-12-01T11:49:59.125Z,33.40
2022-12-01T11:52:33.125Z,33.30
2022-12-01T11:55:20.861Z,37.10
2022-12-01T11:57:54.401Z,31.70
2022-12-01T12:00:28.699Z,34.90
2022-12-01T12:03:25.941Z,31.30
2022-12-01T12:09:29.041Z,36.30
2022-12-01T12:12:12.540Z,36.90
2022-12-01T12:14:56.202Z,33.50
2022-12-01T12:18:03.939Z,32.50
2022-12-01T12:20:43.755Z,32.30
2022-12-01T12:23:33.691Z,35.30
2022-12-01T12:26:15.459Z,29.60
2022-12-01T12:28:59.574Z,31.30
2022-12-01T12:31:40.823Z,27.40
2022-12-01T12:34:31.217Z,38.70
2022-12-01T12:37:19.265Z,32.00
2022-12-01T12:40:21.012Z,26.40
2022-12-01T12:45:33.736Z,31.60
2022-12-01T12:48:20.985Z,33.70
2022-12-01T12:51:01.788Z,28.30
2022-12-01T12:53:49.325Z,31.70
2022-12-01T12:56:24.397Z,33.40
2022-12-01T12:59:02.343Z,32.60
2022-12-01T13:01:38.056Z,31.20
2022-12-01T13:04:15.050Z,34.10
2022-12-01T13:06:51.676Z,37.70
2022-12-01T13:09:28.347Z,36.20
2022-12-01T13:12:05.861Z,33.10
2022-12-01T13:14:40.801Z,32.20
2022-12-01T13:17:21.214Z,32.10
2022-12-01T13:19:52.172Z,31.90
2022-12-01T13:22:31.170Z,32.80
2022-12-01T13:25:02.330Z,29.80
2022-12-01T13:27:37.115Z,34.00
2022-12-01T13:30:17.890Z,34.20
2022-12-01T13:32:49.979Z,34.30
2022-12-01T13:35:30.572Z,33.50
2022-12-01T13:38:22.972Z,27.90
2022-12-01T13:41:23.625Z,26.90
2022-12-01T13:44:00.520Z,31.00
2022-12-01T13:46:34.520Z,30.40
2022-12-01T13:49:06.587Z,31.00
2022-12-01T13:52:08.058Z,33.50
2022-12-01T13:54:39.838Z,29.60
2022-12-01T13:57:15.200Z,33.70
2022-12-01T14:00:08.409Z,27.90
2022-12-01T14:02:45.971Z,26.80
2022-12-01T14:05:46.283Z,29.60
2022-12-01T14:08:23.427Z,29.00
2022-12-01T14:11:01.862Z,32.30
2022-12-01T14:13:45.674Z,29.60
2022-12-01T14:16:16.392Z,30.60
2022-12-01T14:18:53.822Z,29.30
2022-12-01T14:21:45.117Z,24.60
2022-12-01T14:24:27.976Z,27.60
2022-12-01T14:26:58.761Z,30.10
2022-12-01T14:29:35.113Z,30.80
2022-12-01T14:32:24.039Z,28.70
2022-12-01T14:34:59.503Z,28.90
2022-12-01T14:37:38.405Z,25.70
2022-12-01T14:40:17.077Z,33.70
2022-12-01T14:43:09.692Z,35.80
2022-12-01T14:45:48.748Z,31.50
2022-12-01T14:48:25.029Z,38.50
2022-12-01T14:51:07.006Z,27.20
2022-12-01T14:53:42.088Z,29.30
2022-12-01T14:56:15.976Z,42.60
2022-12-01T14:58:56.380Z,38.10
2022-12-01T15:01:31.357Z,32.90
2022-12-01T15:04:05.249Z,27.50
2022-12-01T15:06:38.894Z,26.60
2022-12-01T15:12:07.617Z,31.40
2022-12-01T15:14:40.336Z,36.00
2022-12-01T15:17:43.336Z,31.10
2022-12-01T15:20:31.444Z,30.40
2022-12-01T15:23:03.551Z,25.70
2022-12-01T15:25:37.161Z,31.00
2022-12-01T15:28:15.814Z,27.20
2022-12-01T15:30:49.787Z,32.00
2022-12-01T15:33:27.308Z,31.10
2022-12-01T15:36:01.322Z,27.20
2022-12-01T15:38:34.650Z,29.40
2022-12-01T15:44:00.747Z,37.50
2022-12-01T15:46:34.253Z,32.20
2022-12-01T15:49:17.575Z,35.30
2022-12-01T15:51:49.206Z,27.40
2022-12-01T15:54:24.343Z,37.80
2022-12-01T15:56:58.709Z,34.60
2022-12-01T15:59:35.131Z,32.60
2022-12-01T16:02:21.835Z,34.60
2022-12-01T16:05:03.653Z,33.10
2022-12-01T16:08:12.027Z,33.30
2022-12-01T16:10:31.328Z,34.20
2022-12-01T16:13:40.965Z,36.00
2022-12-01T16:16:29.711Z,34.70
2022-12-01T16:19:02.640Z,33.70
2022-12-01T16:21:35.662Z,34.70
2022-12-01T16:24:08.002Z,35.90
2022-12-01T16:26:47.112Z,33.80
2022-12-01T16:29:21.977Z,33.20
2022-12-01T16:34:46.576Z,31.60
2022-12-01T16:37:17.939Z,37.10
2022-12-01T16:39:48.740Z,35.00
2022-12-01T16:42:21.756Z,36.40
2022-12-01T16:44:53.334Z,42.40
2022-12-01T16:47:26.424Z,39.90
2022-12-01T16:49:56.857Z,42.20
2022-12-01T16:52:45.006Z,40.20
2022-12-01T16:55:28.281Z,38.50
2022-12-01T16:57:58.883Z,43.10
2022-12-01T17:00:29.733Z,70.80
2022-12-01T17:03:00.988Z,67.10
2022-12-01T17:05:32.027Z,49.30
2022-12-01T17:08:02.931Z,49.70
2022-12-01T17:10:33.873Z,37.80
2022-12-01T17:13:04.486Z,34.30
2022-12-01T17:15:35.281Z,42.70
2022-12-01T17:18:06.171Z,44.80
2022-12-01T17:20:36.835Z,37.90
2022-12-01T17:23:07.587Z,38.20
2022-12-01T17:25:42.906Z,35.80
2022-12-01T17:28:13.441Z,45.60
2022-12-01T17:30:44.315Z,39.50
2022-12-01T17:33:14.937Z,39.60
2022-12-01T17:35:45.583Z,43.80
2022-12-01T17:38:16.266Z,39.50
2022-12-01T17:40:47.047Z,46.50
2022-12-01T17:43:19.934Z,42.90
2022-12-01T17:45:50.477Z,39.10
2022-12-01T17:48:20.971Z,43.30
2022-12-01T17:50:51.732Z,47.00
2022-12-01T17:53:22.285Z,38.30
2022-12-01T17:55:53.848Z,43.20
2022-12-01T17:58:24.568Z,44.30
2022-12-01T18:00:55.979Z,41.00
2022-12-01T18:03:26.525Z,42.80
2022-12-01T18:06:02.479Z,45.90
2022-12-01T18:08:35.802Z,41.70
2022-12-01T18:11:10.189Z,45.70
2022-12-01T18:13:42.468Z,40.70
2022-12-01T18:16:15.516Z,39.60
2022-12-01T18:18:46.510Z,49.50
2022-12-01T18:21:23.993Z,46.20
2022-12-01T18:23:56.594Z,44.20
2022-12-01T18:26:28.169Z,44.40
2022-12-01T18:28:59.960Z,45.10
2022-12-01T18:31:31.701Z,44.60
2022-12-01T18:34:03.740Z,35.30
2022-12-01T18:36:36.919Z,47.70
2022-12-01T18:39:09.726Z,48.60
2022-12-01T18:41:40.750Z,48.90
2022-12-01T18:44:11.773Z,48.50
2022-12-01T18:46:42.525Z,46.10
2022-12-01T18:49:13.760Z,53.40
2022-12-01T18:51:44.362Z,51.40
2022-12-01T18:54:17.251Z,56.70
2022-12-01T18:56:52.292Z,49.70
2022-12-01T18:59:23.033Z,58.70
2022-12-01T19:01:54.377Z,60.50
2022-12-01T19:04:25.243Z,48.20
2022-12-01T19:06:55.976Z,54.70
2022-12-01T19:09:27.851Z,57.60
2022-12-01T19:12:00.297Z,61.10
2022-12-01T19:14:31.182Z,55.70
2022-12-01T19:17:01.531Z,64.40
2022-12-01T19:19:37.121Z,63.50
2022-12-01T19:22:08.277Z,57.30
2022-12-01T19:24:38.785Z,63.60
2022-12-01T19:27:09.192Z,60.90
2022-12-01T19:29:39.844Z,60.90
2022-12-01T19:32:11.030Z,65.60
2022-12-01T19:34:41.641Z,58.80
2022-12-01T19:37:12.389Z,58.70
2022-12-01T19:39:43.001Z,58.80
2022-12-01T19:42:14.231Z,60.10
2022-12-01T19:44:45.487Z,60.80
2022-12-01T19:49:52.860Z,60.90
2022-12-01T19:52:23.367Z,62.40
2022-12-01T19:54:54.779Z,63.40
2022-12-01T19:57:25.484Z,69.20
2022-12-01T19:59:55.946Z,73.60
2022-12-01T20:02:29.354Z,68.40
2022-12-01T20:05:02.662Z,60.50
2022-12-01T20:07:33.362Z,72.00
2022-12-01T20:10:04.109Z,73.60
2022-12-01T20:12:35.007Z,62.60
2022-12-01T20:15:08.759Z,75.80
2022-12-01T20:17:39.766Z,68.00
2022-12-01T20:20:13.265Z,62.90
2022-12-01T20:22:44.016Z,68.70
2022-12-01T20:25:14.643Z,68.80
2022-12-01T20:27:46.159Z,73.90
2022-12-01T20:30:18.066Z,79.00
2022-12-01T20:32:48.864Z,65.80
2022-12-01T20:35:19.641Z,67.60
2022-12-01T20:37:50.216Z,71.70
2022-12-01T20:40:21.707Z,78.80
2022-12-01T20:45:21.334Z,82.70
2022-12-01T20:47:52.047Z,73.10
2022-12-01T20:50:22.872Z,72.60
2022-12-01T20:52:53.373Z,72.90
2022-12-01T20:55:24.634Z,73.70
2022-12-01T20:57:55.176Z,67.80
2022-12-01T21:00:26.069Z,76.50
2022-12-01T21:02:57.525Z,69.60
2022-12-01T21:07:57.604Z,71.10
2022-12-01T21:10:28.377Z,71.10
2022-12-01T21:13:24.174Z,67.60
2022-12-01T21:16:03.428Z,70.80
2022-12-01T21:18:43.283Z,80.90
2022-12-01T21:21:27.589Z,65.80
2022-12-01T21:24:11.753Z,72.50
2022-12-01T21:26:46.923Z,63.50
2022-12-01T21:29:27.740Z,83.80
2022-12-01T21:32:04.287Z,76.20
2022-12-01T21:34:37.136Z,78.20
2022-12-01T21:37:18.432Z,68.10
2022-12-01T21:39:51.004Z,68.60
2022-12-01T21:42:26.105Z,79.60
2022-12-01T21:44:58.671Z,71.00
2022-12-01T21:47:32.685Z,69.90
2022-12-01T21:50:15.575Z,78.50
2022-12-01T21:52:47.670Z,77.10
2022-12-01T21:55:37.005Z,86.50
2022-12-01T21:58:22.465Z,81.10
2022-12-01T22:00:55.213Z,78.90
2022-12-01T22:03:32.281Z,73.80
2022-12-01T22:06:28.674Z,81.00
2022-12-01T22:09:02.081Z,68.10
2022-12-01T22:11:33.526Z,65.80
2022-12-01T22:16:44.269Z,71.60
2022-12-01T22:19:27.353Z,72.60
2022-12-01T22:22:02.729Z,75.80
2022-12-01T22:24:43.792Z,67.00
2022-12-01T22:27:32.739Z,67.50
2022-12-01T22:30:23.206Z,77.20
2022-12-01T22:33:00.246Z,80.90
2022-12-01T22:35:39.858Z,76.00
2022-12-01T22:38:35.514Z,72.30
2022-12-01T22:41:13.141Z,88.70
2022-12-01T22:43:49.036Z,76.50
2022-12-01T22:46:26.132Z,89.40
2022-12-01T22:49:00.947Z,65.70
2022-12-01T22:51:47.430Z,73.20
2022-12-01T22:54:29.869Z,71.90
2022-12-01T22:57:06.889Z,80.30
2022-12-01T22:59:39.517Z,79.00
2022-12-01T23:02:21.161Z,72.20
2022-12-01T23:04:54.080Z,72.70
2022-12-01T23:07:41.425Z,75.00
2022-12-01T23:10:16.316Z,73.60
2022-12-01T23:12:48.332Z,73.80
2022-12-01T23:15:27.987Z,80.50
2022-12-01T23:17:59.981Z,82.50
2022-12-01T23:20:34.314Z,77.20
2022-12-01T23:23:09.453Z,72.80
2022-12-01T23:25:40.743Z,69.20
2022-12-01T23:28:12.088Z,73.00
2022-12-01T23:33:21.826Z,76.40
2022-12-01T23:35:56.045Z,74.00
2022-12-01T23:38:32.716Z,76.30
2022-12-01T23:41:07.723Z,73.10
2022-12-01T23:43:42.576Z,85.10
2022-12-01T23:46:17.142Z,80.10
2022-12-01T23:48:50.337Z,67.90
2022-12-01T23:51:24.550Z,64.70
2022-12-01T23:53:56.979Z,83.30
2022-12-01T23:56:31.995Z,106.00
2022-12-01T23:59:03.495Z,84.40
